Terminal Aerodrome Forecast
Issued by NWS

Home | Current Version | Previous Version | Text Only | Print | Product List | Glossary On
Versions: 1 2 3 4 5 6 7 8 9 10 11 12 13 14 15 16
000
FTUS44 KLIX 181131
TAFMCB
TAF
KMCB 181131Z 1812/1912 VRB03KT 2SM -RA BR OVC002
     FM181400 16006KT 2SM SHRA OVC020
     FM190400 18005KT P6SM BKN008
     FM191000 22004KT 3SM BR BKN003
      TEMPO 1910/1912 1SM BR=

USA.gov is the U.S. government's official web portal to all federal, state and local government web resources and services.